createdAt,value
2023-06-11T00:00:33.521Z,3.80
2023-06-11T00:03:00.152Z,3.50
2023-06-11T00:05:29.128Z,4.53
2023-06-11T00:07:57.055Z,7.75
2023-06-11T00:10:24.253Z,4.95
2023-06-11T00:12:50.840Z,6.38
2023-06-11T00:15:17.400Z,5.57
2023-06-11T00:17:44.108Z,5.15
2023-06-11T00:20:12.690Z,4.72
2023-06-11T00:22:40.613Z,6.50
2023-06-11T00:25:11.616Z,4.55
2023-06-11T00:27:38.579Z,5.50
2023-06-11T00:30:07.519Z,5.93
2023-06-11T00:32:36.526Z,6.22
2023-06-11T00:35:08.003Z,6.32
2023-06-11T00:37:35.550Z,4.40
2023-06-11T00:40:02.688Z,7.00
2023-06-11T00:42:29.288Z,5.07
2023-06-11T00:44:55.871Z,4.72
2023-06-11T00:47:22.655Z,4.95
2023-06-11T00:49:49.265Z,5.97
2023-06-11T00:52:16.867Z,4.43
2023-06-11T00:54:43.536Z,5.50
2023-06-11T00:57:10.382Z,6.22
2023-06-11T00:59:39.738Z,4.07
2023-06-11T01:02:22.532Z,6.38
2023-06-11T01:04:58.372Z,4.73
2023-06-11T01:07:31.362Z,5.10
2023-06-11T01:09:59.468Z,6.70
2023-06-11T01:12:26.448Z,4.38
2023-06-11T01:14:53.936Z,4.70
2023-06-11T01:17:30.689Z,4.93
2023-06-11T01:20:15.642Z,4.75
2023-06-11T01:23:15.535Z,6.50
2023-06-11T01:26:16.258Z,5.55
2023-06-11T01:28:47.245Z,5.50
2023-06-11T01:31:16.283Z,4.70
2023-06-11T01:33:44.012Z,4.70
2023-06-11T01:36:12.170Z,5.57
2023-06-11T01:38:46.032Z,5.82
2023-06-11T01:41:13.434Z,7.35
2023-06-11T01:43:40.093Z,5.57
2023-06-11T01:46:06.825Z,6.00
2023-06-11T01:48:33.774Z,7.40
2023-06-11T01:51:00.826Z,5.10
2023-06-11T01:53:27.630Z,5.75
2023-06-11T01:55:56.181Z,9.43
2023-06-11T01:58:23.001Z,8.63
2023-06-11T02:00:49.597Z,5.82
2023-06-11T02:03:17.041Z,5.45
2023-06-11T02:05:44.438Z,6.18
2023-06-11T02:08:11.503Z,5.50
2023-06-11T02:10:38.220Z,7.68
2023-06-11T02:13:04.727Z,6.13
2023-06-11T02:15:31.205Z,5.75
2023-06-11T02:17:57.844Z,5.65
2023-06-11T02:20:24.483Z,7.13
2023-06-11T02:22:51.060Z,5.40
2023-06-11T02:25:17.626Z,5.53
2023-06-11T02:27:44.317Z,7.10
2023-06-11T02:30:11.508Z,5.70
2023-06-11T02:32:38.235Z,7.47
2023-06-11T02:35:05.119Z,7.68
2023-06-11T02:37:31.630Z,5.72
2023-06-11T02:39:58.133Z,6.78
2023-06-11T02:42:24.955Z,6.40
2023-06-11T02:44:51.449Z,6.20
2023-06-11T02:47:18.048Z,6.00
2023-06-11T02:49:44.741Z,6.05
2023-06-11T02:52:11.303Z,6.50
2023-06-11T02:54:37.808Z,7.18
2023-06-11T02:57:04.693Z,7.20
2023-06-11T02:59:31.232Z,5.85
2023-06-11T03:01:57.913Z,7.55
2023-06-11T03:04:24.542Z,7.93
2023-06-11T03:06:51.167Z,9.38
2023-06-11T03:09:17.971Z,10.13
2023-06-11T03:11:44.644Z,7.93
2023-06-11T03:14:11.179Z,6.70
2023-06-11T03:16:37.812Z,7.57
2023-06-11T03:19:04.396Z,6.32
2023-06-11T03:21:30.982Z,6.63
2023-06-11T03:23:57.757Z,7.30
2023-06-11T03:26:25.552Z,8.98
2023-06-11T03:28:52.154Z,5.97
2023-06-11T03:31:18.878Z,6.90
2023-06-11T03:33:45.460Z,6.30
2023-06-11T03:36:11.953Z,6.30
2023-06-11T03:38:38.473Z,9.25
2023-06-11T03:41:05.307Z,6.88
2023-06-11T03:43:32.006Z,6.93
2023-06-11T03:45:58.595Z,7.47
2023-06-11T03:48:25.280Z,7.93
2023-06-11T03:50:51.830Z,7.05
2023-06-11T03:53:19.490Z,7.72
2023-06-11T03:55:46.146Z,7.18
2023-06-11T03:58:12.737Z,7.03
2023-06-11T04:00:39.246Z,6.93
2023-06-11T04:03:05.997Z,7.60
2023-06-11T04:05:38.346Z,7.43
2023-06-11T04:08:05.622Z,7.60
2023-06-11T04:10:32.986Z,7.27
2023-06-11T04:12:59.540Z,7.55
2023-06-11T04:15:26.896Z,8.25
2023-06-11T04:17:53.556Z,6.90
2023-06-11T04:20:20.440Z,8.32
2023-06-11T04:22:47.005Z,7.30
2023-06-11T04:25:13.878Z,7.70
2023-06-11T04:27:40.898Z,8.18
2023-06-11T04:30:08.461Z,7.65
2023-06-11T04:32:38.153Z,9.18
2023-06-11T04:35:05.673Z,9.30
2023-06-11T04:37:39.204Z,6.90
2023-06-11T04:40:10.822Z,8.07
2023-06-11T04:42:41.822Z,7.55
2023-06-11T04:45:10.956Z,9.73
2023-06-11T04:47:38.586Z,7.30
2023-06-11T04:50:06.281Z,11.32
2023-06-11T04:52:39.037Z,7.72
2023-06-11T04:55:11.292Z,7.93
2023-06-11T04:57:38.446Z,8.32
2023-06-11T05:00:09.578Z,9.27
2023-06-11T05:02:39.969Z,8.27
2023-06-11T05:05:07.355Z,9.80
2023-06-11T05:07:34.322Z,9.13
2023-06-11T05:10:01.397Z,14.23
2023-06-11T05:12:28.013Z,9.23
2023-06-11T05:14:54.667Z,9.07
2023-06-11T05:17:21.319Z,9.10
2023-06-11T05:19:48.011Z,9.40
2023-06-11T05:22:14.607Z,12.50
2023-06-11T05:24:43.890Z,9.90
2023-06-11T05:27:10.658Z,10.77
2023-06-11T05:29:39.199Z,8.82
2023-06-11T05:32:06.869Z,8.85
2023-06-11T05:34:34.348Z,8.55
2023-06-11T05:37:02.186Z,8.77
2023-06-11T05:39:28.868Z,8.48
2023-06-11T05:41:55.573Z,8.45
2023-06-11T05:44:22.152Z,9.02
2023-06-11T05:46:48.801Z,8.40
2023-06-11T05:49:15.410Z,8.63
2023-06-11T05:51:41.905Z,8.27
2023-06-11T05:54:08.592Z,8.25
2023-06-11T05:56:35.186Z,10.32
2023-06-11T05:59:01.857Z,8.10
2023-06-11T06:01:29.673Z,7.90
2023-06-11T06:03:56.501Z,7.80
2023-06-11T06:06:23.085Z,7.70
2023-06-11T06:08:49.635Z,7.53
2023-06-11T06:11:16.235Z,7.57
2023-06-11T06:13:42.758Z,7.23
2023-06-11T06:16:09.489Z,8.20
2023-06-11T06:18:36.486Z,7.72
2023-06-11T06:21:03.122Z,7.97
2023-06-11T06:23:29.682Z,8.02
2023-06-11T06:25:56.176Z,7.40
2023-06-11T06:28:22.737Z,7.70
2023-06-11T06:30:50.290Z,7.95
2023-06-11T06:33:17.612Z,8.10
2023-06-11T06:35:44.365Z,7.65
2023-06-11T06:38:10.931Z,7.87
2023-06-11T06:40:37.544Z,11.10
2023-06-11T06:43:04.100Z,9.60
2023-06-11T06:45:30.654Z,7.50
2023-06-11T06:47:57.233Z,7.82
2023-06-11T06:50:23.931Z,7.63
2023-06-11T06:52:50.442Z,7.05
2023-06-11T06:55:17.138Z,7.85
2023-06-11T06:57:43.773Z,7.25
2023-06-11T07:00:11.341Z,7.50
2023-06-11T07:02:38.182Z,7.47
2023-06-11T07:05:05.110Z,7.22
2023-06-11T07:07:31.714Z,9.00
2023-06-11T07:09:58.254Z,7.82
2023-06-11T07:12:24.880Z,7.00
2023-06-11T07:14:51.535Z,6.47
2023-06-11T07:17:19.490Z,7.18
2023-06-11T07:19:46.460Z,7.13
2023-06-11T07:22:13.047Z,6.70
2023-06-11T07:24:40.614Z,6.93
2023-06-11T07:27:08.167Z,6.10
2023-06-11T07:29:34.675Z,6.40
2023-06-11T07:32:01.235Z,6.78
2023-06-11T07:34:27.855Z,6.50
2023-06-11T07:36:54.480Z,8.73
2023-06-11T07:39:21.096Z,6.90
2023-06-11T07:41:47.584Z,7.32
2023-06-11T07:44:14.156Z,6.68
2023-06-11T07:46:40.975Z,7.00
2023-06-11T07:49:07.717Z,6.82
2023-06-11T07:51:34.284Z,7.27
2023-06-11T07:54:01.470Z,6.78
2023-06-11T07:56:28.167Z,7.53
2023-06-11T07:58:55.955Z,7.30
2023-06-11T08:01:22.548Z,7.13
2023-06-11T08:03:49.216Z,7.57
2023-06-11T08:06:16.379Z,7.95
2023-06-11T08:08:43.339Z,7.20
2023-06-11T08:11:10.065Z,7.32
2023-06-11T08:13:36.589Z,7.15
2023-06-11T08:16:03.887Z,7.23
2023-06-11T08:18:30.463Z,6.95
2023-06-11T08:20:57.554Z,7.60
2023-06-11T08:23:24.205Z,7.75
2023-06-11T08:25:50.922Z,8.25
2023-06-11T08:28:17.409Z,7.33
2023-06-11T08:30:43.965Z,7.70
2023-06-11T08:33:10.719Z,7.50
2023-06-11T08:35:37.283Z,6.90
2023-06-11T08:38:04.005Z,7.63
2023-06-11T08:40:30.670Z,7.77
2023-06-11T08:42:57.250Z,7.00
2023-06-11T08:45:23.761Z,7.30
2023-06-11T08:47:53.483Z,7.47
2023-06-11T08:50:22.046Z,8.13
2023-06-11T08:52:52.959Z,7.23
2023-06-11T08:55:19.761Z,7.60
2023-06-11T08:57:47.156Z,6.82
2023-06-11T09:00:14.615Z,7.30
2023-06-11T09:02:41.538Z,7.70
2023-06-11T09:05:08.695Z,7.00
2023-06-11T09:07:37.275Z,9.57
2023-06-11T09:10:11.997Z,6.82
2023-06-11T09:12:38.979Z,7.43
2023-06-11T09:15:06.853Z,7.05
2023-06-11T09:17:42.108Z,7.33
2023-06-11T09:20:11.599Z,7.32
2023-06-11T09:22:39.600Z,6.85
2023-06-11T09:25:11.137Z,6.90
2023-06-11T09:27:39.982Z,7.40
2023-06-11T09:30:11.321Z,6.97
2023-06-11T09:32:40.257Z,6.35
2023-06-11T09:35:09.361Z,7.60
2023-06-11T09:37:43.761Z,7.18
2023-06-11T09:40:12.560Z,7.63
2023-06-11T09:42:39.483Z,8.53
2023-06-11T09:45:07.067Z,6.80
2023-06-11T09:47:34.467Z,6.80
2023-06-11T09:50:02.604Z,6.75
2023-06-11T09:52:29.715Z,6.45
2023-06-11T09:54:56.609Z,5.40
2023-06-11T09:57:23.315Z,6.05
2023-06-11T09:59:49.912Z,5.20
2023-06-11T10:02:16.554Z,5.70
2023-06-11T10:04:43.563Z,5.47
2023-06-11T10:07:11.780Z,5.13
2023-06-11T10:09:40.509Z,6.47
2023-06-11T10:12:08.184Z,5.90
2023-06-11T10:14:38.173Z,5.10
2023-06-11T10:17:09.353Z,6.38
2023-06-11T10:19:38.247Z,5.93
2023-06-11T10:22:05.056Z,6.00
2023-06-11T10:24:32.334Z,6.47
2023-06-11T10:27:06.301Z,5.93
2023-06-11T10:29:49.659Z,6.57
2023-06-11T10:32:22.151Z,6.03
2023-06-11T10:34:54.110Z,6.25
2023-06-11T10:37:47.733Z,6.30
2023-06-11T10:40:15.404Z,5.90
2023-06-11T10:42:44.717Z,6.55
2023-06-11T10:45:13.164Z,6.00
2023-06-11T10:47:45.333Z,5.40
2023-06-11T10:50:14.339Z,5.20
2023-06-11T10:52:51.850Z,6.68
2023-06-11T10:55:21.702Z,5.50
2023-06-11T10:57:55.036Z,4.97
2023-06-11T11:00:22.575Z,5.35
2023-06-11T11:02:50.760Z,5.82
2023-06-11T11:05:17.671Z,5.68
2023-06-11T11:07:47.353Z,5.60
2023-06-11T11:10:20.457Z,6.20
2023-06-11T11:12:48.620Z,6.15
2023-06-11T11:15:15.933Z,5.65
2023-06-11T11:17:46.243Z,4.93
2023-06-11T11:20:21.028Z,5.32
2023-06-11T11:22:56.753Z,5.17
2023-06-11T11:25:31.304Z,5.28
2023-06-11T11:27:58.458Z,4.55
2023-06-11T11:30:29.857Z,5.22
2023-06-11T11:32:59.883Z,5.25
2023-06-11T11:35:27.734Z,4.83
2023-06-11T11:37:55.813Z,4.82
2023-06-11T11:40:23.424Z,5.00
2023-06-11T11:42:50.926Z,5.00
2023-06-11T11:45:18.964Z,4.25
2023-06-11T11:47:51.887Z,4.77
2023-06-11T11:50:31.246Z,4.90
2023-06-11T11:53:04.565Z,4.93
2023-06-11T11:55:33.580Z,4.80
2023-06-11T11:58:06.167Z,4.85
2023-06-11T12:00:33.686Z,5.30
2023-06-11T12:03:09.193Z,4.75
2023-06-11T12:05:37.261Z,5.10
2023-06-11T12:08:04.903Z,5.47
2023-06-11T12:10:31.619Z,5.45
2023-06-11T12:13:00.552Z,4.77
2023-06-11T12:15:28.118Z,4.95
2023-06-11T12:17:55.059Z,4.38
2023-06-11T12:20:24.482Z,4.60
2023-06-11T12:22:51.651Z,5.18
2023-06-11T12:25:18.727Z,4.90
2023-06-11T12:27:45.949Z,4.20
2023-06-11T12:30:13.751Z,4.25
2023-06-11T12:32:42.010Z,4.00
2023-06-11T12:35:09.380Z,4.95
2023-06-11T12:37:37.549Z,4.70
2023-06-11T12:40:07.895Z,3.83
2023-06-11T12:42:34.420Z,4.30
2023-06-11T12:45:03.631Z,4.15
2023-06-11T12:47:31.162Z,4.30
2023-06-11T12:49:58.066Z,4.07
2023-06-11T12:52:24.800Z,4.80
2023-06-11T12:54:51.410Z,4.30
2023-06-11T12:57:17.972Z,3.78
2023-06-11T12:59:44.769Z,5.20
2023-06-11T13:02:12.326Z,4.00
2023-06-11T13:04:39.484Z,4.78
2023-06-11T13:07:06.459Z,4.25
2023-06-11T13:09:33.009Z,3.78
2023-06-11T13:11:59.855Z,3.90
2023-06-11T13:14:26.373Z,4.57
2023-06-11T13:16:53.066Z,10.85
2023-06-11T13:19:19.727Z,4.53
2023-06-11T13:21:46.366Z,6.25
2023-06-11T13:24:12.888Z,4.13
2023-06-11T13:26:39.441Z,4.83
2023-06-11T13:29:06.017Z,4.03
2023-06-11T13:31:32.748Z,4.28
2023-06-11T13:33:59.330Z,4.43
2023-06-11T13:36:26.224Z,4.30
2023-06-11T13:38:52.691Z,4.80
2023-06-11T13:41:19.303Z,4.20
2023-06-11T13:43:45.826Z,4.63
2023-06-11T13:46:12.472Z,5.30
2023-06-11T13:48:39.000Z,4.32
2023-06-11T13:51:05.540Z,4.70
2023-06-11T13:53:32.301Z,4.38
2023-06-11T13:55:58.854Z,4.43
2023-06-11T13:58:26.158Z,4.68
2023-06-11T14:00:54.668Z,4.35
2023-06-11T14:03:21.931Z,4.30
2023-06-11T14:05:48.637Z,4.70
2023-06-11T14:08:18.829Z,4.55
2023-06-11T14:10:46.303Z,3.97
2023-06-11T14:13:12.986Z,4.43
2023-06-11T14:15:39.538Z,4.80
2023-06-11T14:18:06.327Z,4.50
2023-06-11T14:20:33.021Z,5.00
2023-06-11T14:22:59.580Z,4.47
2023-06-11T14:25:26.181Z,4.70
2023-06-11T14:27:52.687Z,4.27
2023-06-11T14:30:20.360Z,4.22
2023-06-11T14:32:46.998Z,4.57
2023-06-11T14:35:13.607Z,6.05
2023-06-11T14:37:40.276Z,4.20
2023-06-11T14:40:07.548Z,4.83
2023-06-11T14:42:34.106Z,5.05
2023-06-11T14:45:04.085Z,5.40
2023-06-11T14:47:31.574Z,4.28
2023-06-11T14:49:58.168Z,4.70
2023-06-11T14:52:24.708Z,4.47
2023-06-11T14:54:51.262Z,4.30
2023-06-11T14:57:20.142Z,4.72
2023-06-11T14:59:46.996Z,4.47
2023-06-11T15:02:16.893Z,4.65
2023-06-11T15:04:44.993Z,4.77
2023-06-11T15:07:29.367Z,5.03
2023-06-11T15:10:01.065Z,7.63
2023-06-11T15:12:27.546Z,4.47
2023-06-11T15:14:54.085Z,4.72
2023-06-11T15:17:21.812Z,5.33
2023-06-11T15:19:48.374Z,4.50
2023-06-11T15:22:15.231Z,4.28
2023-06-11T15:24:41.751Z,4.82
2023-06-11T15:27:08.586Z,5.03
2023-06-11T15:29:35.136Z,4.23
2023-06-11T15:32:01.920Z,4.72
2023-06-11T15:34:28.538Z,5.00
2023-06-11T15:36:55.061Z,5.22
2023-06-11T15:39:21.809Z,4.95
2023-06-11T15:41:48.359Z,4.67
2023-06-11T15:44:14.941Z,4.80
2023-06-11T15:46:41.561Z,4.80
2023-06-11T15:49:08.177Z,4.35
2023-06-11T15:51:34.714Z,5.13
2023-06-11T15:54:03.685Z,5.17
2023-06-11T15:56:30.800Z,5.75
2023-06-11T15:58:57.319Z,5.13
2023-06-11T16:01:24.208Z,5.03
2023-06-11T16:03:50.899Z,5.47
2023-06-11T16:06:19.566Z,5.67
2023-06-11T16:08:46.251Z,5.18
2023-06-11T16:11:12.850Z,5.40
2023-06-11T16:13:39.330Z,5.43
2023-06-11T16:16:06.074Z,5.35
2023-06-11T16:18:32.612Z,7.37
2023-06-11T16:20:59.229Z,5.28
2023-06-11T16:23:26.235Z,5.25
2023-06-11T16:25:52.919Z,5.15
2023-06-11T16:28:19.480Z,4.63
2023-06-11T16:30:46.041Z,5.40
2023-06-11T16:33:12.690Z,5.03
2023-06-11T16:35:39.302Z,5.43
2023-06-11T16:38:05.891Z,5.30
2023-06-11T16:40:32.532Z,7.00
2023-06-11T16:42:59.137Z,5.37
2023-06-11T16:45:27.728Z,5.22
2023-06-11T16:47:54.576Z,6.75
2023-06-11T16:50:21.418Z,5.45
2023-06-11T16:52:49.874Z,5.30
2023-06-11T16:55:18.883Z,5.23
2023-06-11T16:57:45.617Z,5.13
2023-06-11T17:00:13.128Z,5.70
2023-06-11T17:02:39.987Z,5.47
2023-06-11T17:05:06.788Z,5.47
2023-06-11T17:07:35.119Z,5.33
2023-06-11T17:10:04.128Z,5.13
2023-06-11T17:12:30.883Z,5.32
2023-06-11T17:14:57.386Z,5.47
2023-06-11T17:17:23.934Z,5.65
2023-06-11T17:19:50.972Z,4.80
2023-06-11T17:22:17.525Z,5.93
2023-06-11T17:24:44.061Z,5.35
2023-06-11T17:27:10.583Z,9.52
2023-06-11T17:29:37.168Z,5.95
2023-06-11T17:32:04.053Z,5.77
2023-06-11T17:34:30.592Z,6.38
2023-06-11T17:36:57.311Z,6.70
2023-06-11T17:39:23.851Z,6.72
2023-06-11T17:41:50.658Z,6.30
2023-06-11T17:44:18.775Z,6.33
2023-06-11T17:46:46.470Z,6.30
2023-06-11T17:49:13.442Z,6.32
2023-06-11T17:51:40.444Z,5.90
2023-06-11T17:54:06.923Z,5.90
2023-06-11T17:56:33.500Z,6.70
2023-06-11T17:59:01.128Z,5.88
2023-06-11T18:01:27.711Z,6.15
2023-06-11T18:03:54.315Z,6.25
2023-06-11T18:06:21.216Z,6.03
2023-06-11T18:08:47.755Z,5.83
2023-06-11T18:11:14.374Z,5.82
2023-06-11T18:13:40.940Z,6.35
2023-06-11T18:16:07.563Z,6.65
2023-06-11T18:18:34.269Z,6.28
2023-06-11T18:21:00.867Z,6.10
2023-06-11T18:23:27.367Z,6.25
2023-06-11T18:25:54.040Z,6.45
2023-06-11T18:28:21.231Z,6.18
2023-06-11T18:31:22.749Z,6.18
2023-06-11T18:33:49.554Z,5.67
2023-06-11T18:39:37.610Z,5.80
2023-06-11T18:42:14.153Z,7.95
2023-06-11T18:44:40.884Z,5.65
2023-06-11T18:56:17.108Z,5.68
2023-06-11T18:58:51.924Z,6.53
2023-06-11T19:01:21.237Z,6.90
2023-06-11T19:03:48.172Z,5.78
2023-06-11T19:06:15.028Z,6.18
2023-06-11T19:08:47.780Z,6.05
2023-06-11T19:11:14.409Z,6.65
2023-06-11T19:13:47.893Z,11.97
2023-06-11T19:16:15.581Z,5.90
2023-06-11T19:18:42.453Z,6.00
2023-06-11T19:21:11.573Z,5.53
2023-06-11T19:23:38.353Z,5.53
2023-06-11T19:26:05.179Z,5.37
2023-06-11T19:28:31.752Z,8.35
2023-06-11T19:30:58.429Z,5.68
2023-06-11T19:33:25.288Z,5.38
2023-06-11T19:35:51.972Z,5.72
2023-06-11T19:40:53.973Z,5.60
2023-06-11T19:43:20.558Z,8.38
2023-06-11T19:45:47.100Z,5.18
2023-06-11T19:48:13.903Z,6.82
2023-06-11T19:50:40.575Z,5.50
2023-06-11T19:53:07.152Z,10.85
2023-06-11T19:55:35.019Z,8.18
2023-06-11T19:58:03.247Z,6.45
2023-06-11T20:00:29.810Z,5.15
2023-06-11T20:02:56.392Z,5.67
2023-06-11T20:05:22.986Z,5.32
2023-06-11T20:07:49.600Z,7.07
2023-06-11T20:10:16.203Z,6.72
2023-06-11T20:12:42.847Z,6.15
2023-06-11T20:15:10.000Z,7.77
2023-06-11T20:17:37.620Z,4.80
2023-06-11T20:20:04.520Z,5.63
2023-06-11T20:22:32.468Z,5.07
2023-06-11T20:24:59.307Z,5.10
2023-06-11T20:27:25.967Z,5.20
2023-06-11T20:29:52.828Z,4.85
2023-06-11T20:32:23.948Z,5.00
2023-06-11T20:34:50.909Z,4.18
2023-06-11T20:37:17.548Z,4.32
2023-06-11T20:39:44.274Z,6.00
2023-06-11T20:42:11.139Z,4.70
2023-06-11T20:47:39.476Z,7.95
2023-06-11T20:50:07.430Z,4.18
2023-06-11T20:52:35.429Z,4.77
2023-06-11T20:55:02.190Z,4.60
2023-06-11T20:57:29.076Z,4.38
2023-06-11T20:59:55.787Z,4.10
2023-06-11T21:02:22.326Z,4.82
2023-06-11T21:04:49.161Z,6.17
2023-06-11T21:07:16.649Z,4.07
2023-06-11T21:09:43.248Z,4.55
2023-06-11T21:12:13.310Z,4.47
2023-06-11T21:14:39.814Z,4.43
2023-06-11T21:17:06.452Z,4.93
2023-06-11T21:19:33.047Z,4.13
2023-06-11T21:21:59.575Z,6.03
2023-06-11T21:24:26.137Z,3.97
2023-06-11T21:26:53.360Z,4.70
2023-06-11T21:29:20.098Z,5.40
2023-06-11T21:31:46.759Z,5.40
2023-06-11T21:34:13.437Z,4.47
2023-06-11T21:36:39.921Z,4.10
2023-06-11T21:39:06.678Z,4.30
2023-06-11T21:41:33.270Z,4.10
2023-06-11T21:43:59.997Z,4.93
2023-06-11T21:46:26.647Z,4.45
2023-06-11T21:48:53.375Z,4.25
2023-06-11T21:51:21.259Z,7.22
2023-06-11T21:53:47.846Z,4.10
2023-06-11T21:56:14.352Z,4.18
2023-06-11T21:58:41.142Z,4.55
2023-06-11T22:01:07.746Z,5.88
2023-06-11T22:03:34.465Z,5.72
2023-06-11T22:06:04.042Z,4.60
2023-06-11T22:08:31.458Z,4.20
2023-06-11T22:10:57.991Z,4.30
2023-06-11T22:13:24.658Z,3.97
2023-06-11T22:15:51.281Z,3.53
2023-06-11T22:18:17.949Z,3.40
2023-06-11T22:20:44.479Z,3.75
2023-06-11T22:23:11.921Z,3.70
2023-06-11T22:25:38.554Z,4.18
2023-06-11T22:28:05.314Z,5.22
2023-06-11T22:30:38.099Z,5.60
2023-06-11T22:33:14.425Z,3.88
2023-06-11T22:35:40.992Z,4.88
2023-06-11T22:38:07.546Z,4.15
2023-06-11T22:40:34.053Z,3.60
2023-06-11T22:43:00.598Z,6.10
2023-06-11T22:45:27.160Z,3.85
2023-06-11T22:47:54.780Z,4.55
2023-06-11T22:50:21.455Z,3.72
2023-06-11T22:52:50.647Z,4.80
2023-06-11T22:55:18.470Z,4.63
2023-06-11T22:57:45.178Z,3.75
2023-06-11T23:00:12.562Z,3.67
2023-06-11T23:02:39.449Z,5.90
2023-06-11T23:05:08.032Z,6.60
2023-06-11T23:07:38.613Z,3.50
2023-06-11T23:10:05.894Z,3.80
2023-06-11T23:12:40.821Z,3.88
2023-06-11T23:15:07.977Z,5.25
2023-06-11T23:17:34.716Z,3.60
2023-06-11T23:20:02.625Z,4.03
2023-06-11T23:22:29.909Z,5.65
2023-06-11T23:24:56.423Z,3.65
2023-06-11T23:27:22.945Z,3.67
2023-06-11T23:29:49.765Z,6.57
2023-06-11T23:32:16.477Z,4.73
2023-06-11T23:34:43.396Z,4.45
2023-06-11T23:37:10.676Z,4.15
2023-06-11T23:39:37.273Z,5.47
2023-06-11T23:42:04.048Z,3.65
2023-06-11T23:44:30.659Z,3.63
2023-06-11T23:46:57.255Z,4.00
2023-06-11T23:49:23.778Z,4.32
2023-06-11T23:51:50.624Z,3.83
2023-06-11T23:54:17.221Z,4.05
2023-06-11T23:56:43.728Z,3.40
2023-06-11T23:59:10.829Z,3.60
